Time;durP1;ratioP1;P1;durP2;ratioP2;P2;SDS_P1;SDS_P2;PMS_P1;PMS_P2;Temp;Humidity;BMP_temperature;BMP_pressure;BME280_temperature;BME280_humidity;BME280_pressure;Samples;Min_cycle;Max_cycle;Signal;HPM_P1;HPM_P2
2022/02/18 00:00:12;;;;;;;;;;;;;;;18.49;43.52;99586.63;5107959;28;863;-63
2022/02/18 00:02:42;;;;;;;;;;;;;;;18.96;42.48;99600.00;5075875;28;745;-63
2022/02/18 00:05:07;;;;;;;;;;;;;;;19.98;40.17;99600.88;5075046;28;885;-64
2022/02/18 00:07:33;;;;;;;;;;;;;;;20.49;39.10;99609.41;5075697;28;807;-63
2022/02/18 00:09:58;;;;;;;;;;;;;;;20.75;38.43;99601.06;5075673;28;984;-64
2022/02/18 00:12:24;;;;;;;;;;;;;;;20.96;37.95;99605.88;5075663;28;958;-63
2022/02/18 00:14:51;;;;;;;;;;;;;;;19.72;40.56;99604.38;5075669;28;1906;-63
2022/02/18 00:17:19;;;;;;;;;;;;;;;19.66;40.77;99611.22;5075290;28;1041;-63
2022/02/18 00:19:45;;;;;;;;;;;;;;;18.70;43.14;99608.91;5075791;28;1399;-62
2022/02/18 00:22:10;;;;;;;;;;;;;;;18.76;43.28;99618.69;5079786;28;762;-62
2022/02/18 00:24:35;;;;;;;;;;;;;;;19.81;40.61;99618.22;5073160;28;1385;-62
2022/02/18 00:27:01;;;;;;;;;;;;;;;20.40;39.17;99616.88;5079325;28;1340;-62
2022/02/18 00:29:26;;;;;;;;;;;;;;;20.67;38.53;99612.94;5079007;28;861;-62
2022/02/18 00:31:52;;;;;;;;;;;;;;;20.83;38.33;99614.03;5079268;28;894;-62
2022/02/18 00:34:23;;;;;;;;;;;;;;;20.49;39.17;99609.41;5079385;28;789;-62
2022/02/18 00:36:49;;;;;;;;;;;;;;;19.74;40.74;99612.34;5079441;28;1897;-62
2022/02/18 00:39:14;;;;;;;;;;;;;;;19.63;41.09;99614.63;5078078;28;1429;-62
2022/02/18 00:41:41;;;;;;;;;;;;;;;18.38;43.96;99623.81;5078395;28;1032;-62
2022/02/18 00:44:09;;;;;;;;;;;;;;;19.15;42.09;99622.59;5079003;28;895;-63
2022/02/18 00:46:35;;;;;;;;;;;;;;;20.04;40.16;99620.84;5079024;28;1091;-63
2022/02/18 00:49:00;;;;;;;;;;;;;;;20.50;38.95;99622.06;5079308;28;925;-63
2022/02/18 00:51:26;;;;;;;;;;;;;;;20.74;38.48;99627.06;5079240;28;815;-63
2022/02/18 00:53:51;;;;;;;;;;;;;;;20.91;37.98;99615.13;5094661;28;932;-63
2022/02/18 00:56:17;;;;;;;;;;;;;;;19.61;41.03;99619.63;5078191;28;1897;-63
2022/02/18 00:58:42;;;;;;;;;;;;;;;19.63;41.05;99629.19;5078870;28;749;-63
2022/02/18 01:01:10;;;;;;;;;;;;;;;18.53;43.42;99639.13;5078665;28;867;-63
2022/02/18 01:03:36;;;;;;;;;;;;;;;18.87;42.93;99640.44;5111376;28;1093;-63
2022/02/18 01:06:01;;;;;;;;;;;;;;;19.93;40.20;99614.81;5078955;28;782;-63
2022/02/18 01:08:27;;;;;;;;;;;;;;;20.48;39.08;99640.91;5111073;28;1646;-63
2022/02/18 01:10:52;;;;;;;;;;;;;;;20.72;38.65;99642.34;5078613;28;1154;-63
2022/02/18 01:13:18;;;;;;;;;;;;;;;20.93;38.28;99634.16;5078788;28;1118;-63
2022/02/18 01:15:43;;;;;;;;;;;;;;;21.06;38.01;99635.09;5110592;28;1959;-63
2022/02/18 01:18:09;;;;;;;;;;;;;;;20.02;40.01;99626.69;5078449;28;786;-63
2022/02/18 01:20:34;;;;;;;;;;;;;;;19.78;40.40;99636.22;5078608;28;912;-63
2022/02/18 01:22:59;;;;;;;;;;;;;;;19.20;42.00;99626.34;5078474;28;765;-63
2022/02/18 01:25:25;;;;;;;;;;;;;;;17.89;44.76;99637.31;5078538;28;809;-63
2022/02/18 01:27:55;;;;;;;;;;;;;;;19.55;41.10;99635.50;5078263;28;829;-63
2022/02/18 01:30:24;;;;;;;;;;;;;;;20.25;39.54;99632.81;5110639;28;1187;-63
2022/02/18 01:32:50;;;;;;;;;;;;;;;20.62;38.80;99635.19;5109052;28;935;-63
2022/02/18 01:35:17;;;;;;;;;;;;;;;20.84;38.19;99657.09;5110885;28;1985;-63
2022/02/18 01:37:46;;;;;;;;;;;;;;;20.22;39.61;99649.25;5110997;28;1141;-63
2022/02/18 01:40:12;;;;;;;;;;;;;;;19.77;40.77;99651.13;5078583;28;718;-63
2022/02/18 01:42:37;;;;;;;;;;;;;;;19.45;41.47;99660.63;5078152;28;813;-64
2022/02/18 01:45:03;;;;;;;;;;;;;;;18.22;44.06;99664.66;5077853;28;825;-63
2022/02/18 01:47:28;;;;;;;;;;;;;;;19.08;42.25;99676.53;5077181;28;1535;-63
2022/02/18 01:49:58;;;;;;;;;;;;;;;19.95;40.29;99673.22;5077931;28;782;-63
2022/02/18 01:52:27;;;;;;;;;;;;;;;20.43;39.19;99688.84;5078632;28;867;-63
2022/02/18 01:54:52;;;;;;;;;;;;;;;20.69;38.50;99679.72;5103418;28;857;-63
2022/02/18 01:57:18;;;;;;;;;;;;;;;20.88;37.96;99686.84;5077101;28;1909;-63
2022/02/18 01:59:43;;;;;;;;;;;;;;;19.65;40.52;99678.53;5110286;28;1352;-63
2022/02/18 02:02:09;;;;;;;;;;;;;;;19.64;40.88;99674.97;5077345;28;844;-63
2022/02/18 02:04:35;;;;;;;;;;;;;;;18.60;43.09;99678.03;5077777;28;726;-63
2022/02/18 02:07:03;;;;;;;;;;;;;;;18.80;42.68;99677.53;5110437;28;1305;-63
2022/02/18 02:09:29;;;;;;;;;;;;;;;19.91;40.27;99686.03;5110440;28;1322;-63
2022/02/18 02:11:55;;;;;;;;;;;;;;;20.35;39.29;99693.22;5109372;28;1501;-63
2022/02/18 02:14:21;;;;;;;;;;;;;;;20.62;38.60;99694.03;5110333;28;1113;-63
2022/02/18 02:16:47;;;;;;;;;;;;;;;20.80;38.10;99680.19;5109604;28;1913;-63
2022/02/18 02:19:12;;;;;;;;;;;;;;;20.16;39.62;99689.97;5109573;28;1893;-63
2022/02/18 02:21:38;;;;;;;;;;;;;;;19.60;40.94;99698.78;5110292;28;1275;-63
2022/02/18 02:24:04;;;;;;;;;;;;;;;19.35;41.24;99694.81;5109908;28;1382;-63
2022/02/18 02:26:32;;;;;;;;;;;;;;;18.02;44.33;99694.25;5075735;28;1287;-63
2022/02/18 02:28:59;;;;;;;;;;;;;;;19.37;41.58;99681.53;5109864;28;1245;-62
2022/02/18 02:31:25;;;;;;;;;;;;;;;20.05;39.62;99664.66;5092047;28;918;-62
2022/02/18 02:33:53;;;;;;;;;;;;;;;20.50;38.55;99636.69;5109699;28;1116;-61
2022/02/18 02:36:19;;;;;;;;;;;;;;;20.79;38.20;99620.53;5109360;28;1910;-62
2022/02/18 02:38:47;;;;;;;;;;;;;;;20.97;37.54;99635.94;5075981;28;1145;-62
2022/02/18 02:41:14;;;;;;;;;;;;;;;19.67;40.55;99652.25;5109140;28;839;-62
2022/02/18 02:43:40;;;;;;;;;;;;;;;19.67;40.60;99643.97;5075769;28;1264;-62
2022/02/18 02:46:06;;;;;;;;;;;;;;;18.63;42.73;99658.13;5109628;28;1353;-61
2022/02/18 02:48:31;;;;;;;;;;;;;;;18.74;42.73;99653.97;5109170;28;1146;-62
2022/02/18 02:51:02;;;;;;;;;;;;;;;19.90;40.04;99663.19;5076974;28;956;-62
2022/02/18 02:53:28;;;;;;;;;;;;;;;20.43;39.04;99665.94;5077405;28;857;-62
2022/02/18 02:55:53;;;;;;;;;;;;;;;20.66;38.26;99652.72;5076652;28;2047;-62
2022/02/18 02:58:19;;;;;;;;;;;;;;;20.87;37.86;99641.00;5109237;28;1279;-62
2022/02/18 03:00:46;;;;;;;;;;;;;;;20.03;39.37;99644.84;5108689;28;1456;-62
2022/02/18 03:03:25;;;;;;;;;;;;;;;19.61;40.71;99663.75;5109136;28;1140;-62
2022/02/18 03:05:56;;;;;;;;;;;;;;;19.05;41.95;99655.94;5075610;28;1405;-62
2022/02/18 03:08:22;;;;;;;;;;;;;;;18.37;43.50;99658.78;5109000;28;1225;-62
2022/02/18 03:11:14;;;;;;;;;;;;;;;19.71;40.52;99648.84;5108936;28;1015;-62
2022/02/18 03:13:35;;;;;;;;;;;;;;;20.47;38.68;99634.56;5075144;28;1343;-62
2022/02/18 03:16:02;;;;;;;;;;;;;;;20.73;38.32;99638.44;5108336;28;1910;-62
2022/02/18 03:18:27;;;;;;;;;;;;;;;20.89;37.98;99634.00;5076156;28;1007;-62
2022/02/18 03:20:55;;;;;;;;;;;;;;;19.75;40.30;99631.31;5076560;28;789;-62
2022/02/18 03:23:21;;;;;;;;;;;;;;;19.63;40.55;99640.22;5076460;28;769;-62
2022/02/18 03:25:46;;;;;;;;;;;;;;;18.96;41.85;99641.34;5108777;28;1104;-62
2022/02/18 03:28:12;;;;;;;;;;;;;;;18.33;43.39;99638.50;5108312;28;1169;-62
2022/02/18 03:30:38;;;;;;;;;;;;;;;19.66;40.53;99656.13;5108389;28;1988;-62
2022/02/18 03:33:04;;;;;;;;;;;;;;;20.30;39.08;99678.75;5074651;28;1445;-62
2022/02/18 03:35:29;;;;;;;;;;;;;;;20.67;38.33;99681.97;5076203;28;1910;-62
2022/02/18 03:37:57;;;;;;;;;;;;;;;20.82;37.93;99680.69;5108304;28;1374;-63
2022/02/18 03:40:29;;;;;;;;;;;;;;;20.16;39.19;99673.41;5108338;28;1259;-62
2022/02/18 03:42:55;;;;;;;;;;;;;;;19.72;40.30;99659.53;5108058;28;753;-62
2022/02/18 03:45:21;;;;;;;;;;;;;;;19.42;40.85;99656.56;5108588;28;1192;-62
2022/02/18 03:47:47;;;;;;;;;;;;;;;18.10;44.02;99673.44;5074835;28;1214;-62
2022/02/18 03:50:15;;;;;;;;;;;;;;;19.14;41.55;99673.34;5108907;28;1124;-63
2022/02/18 03:52:40;;;;;;;;;;;;;;;20.01;39.73;99674.72;5108577;28;1215;-63
2022/02/18 03:55:07;;;;;;;;;;;;;;;20.44;38.59;99671.13;5075246;28;1976;-63
2022/02/18 03:57:34;;;;;;;;;;;;;;;20.72;37.98;99679.09;5078816;28;1255;-63
2022/02/18 04:00:00;;;;;;;;;;;;;;;20.90;37.68;99676.25;5112839;28;1422;-63
2022/02/18 04:02:26;;;;;;;;;;;;;;;20.08;39.13;99677.78;5078457;28;1327;-63
2022/02/18 04:04:53;;;;;;;;;;;;;;;19.70;40.12;99689.41;5112829;28;1275;-63
2022/02/18 04:07:39;;;;;;;;;;;;;;;19.08;41.38;99704.94;5078454;28;942;-63
2022/02/18 04:10:05;;;;;;;;;;;;;;;18.11;43.69;99708.09;5111933;28;1214;-63
2022/02/18 04:12:33;;;;;;;;;;;;;;;19.63;40.25;99705.63;5078341;28;1883;-62
2022/02/18 04:15:02;;;;;;;;;;;;;;;20.21;39.00;99689.00;5112903;28;1957;-63
2022/02/18 04:17:31;;;;;;;;;;;;;;;20.61;38.04;99695.16;5070014;28;1339;-63
2022/02/18 04:20:05;;;;;;;;;;;;;;;20.81;37.74;99692.88;5077772;28;1375;-63
2022/02/18 04:22:42;;;;;;;;;;;;;;;20.08;39.00;99702.63;5078483;28;1278;-62
2022/02/18 04:25:11;;;;;;;;;;;;;;;19.64;40.15;99707.22;5111979;28;1219;-62
2022/02/18 04:27:36;;;;;;;;;;;;;;;19.25;40.96;99714.38;5079880;28;865;-62
2022/02/18 04:30:02;;;;;;;;;;;;;;;17.96;44.14;99717.50;5079302;28;916;-62
2022/02/18 04:32:28;;;;;;;;;;;;;;;19.25;41.24;99703.34;5077123;28;1105;-63
2022/02/18 04:34:53;;;;;;;;;;;;;;;19.99;39.59;99696.28;5079172;28;1171;-63
2022/02/18 04:37:19;;;;;;;;;;;;;;;20.42;38.56;99698.25;5078659;28;1989;-63
2022/02/18 04:39:44;;;;;;;;;;;;;;;20.70;38.00;99705.41;5078963;28;1072;-65
2022/02/18 04:42:10;;;;;;;;;;;;;;;20.90;37.47;99695.59;5079524;28;778;-63
2022/02/18 04:44:35;;;;;;;;;;;;;;;19.83;39.46;99682.97;5079063;28;753;-62
2022/02/18 04:47:00;;;;;;;;;;;;;;;19.67;40.01;99692.81;5111103;28;914;-62
2022/02/18 04:49:26;;;;;;;;;;;;;;;19.10;41.06;99677.84;5111996;28;941;-62
2022/02/18 04:51:55;;;;;;;;;;;;;;;18.27;43.10;99684.59;5078985;28;1056;-62
2022/02/18 04:54:21;;;;;;;;;;;;;;;19.65;39.95;99693.09;5078977;28;767;-65
2022/02/18 04:56:46;;;;;;;;;;;;;;;20.26;38.59;99686.06;5078696;28;1914;-62
2022/02/18 04:59:12;;;;;;;;;;;;;;;20.62;37.92;99701.47;5079215;28;800;-62
2022/02/18 05:01:38;;;;;;;;;;;;;;;20.82;37.54;99711.06;5078774;28;863;-63
2022/02/18 05:04:03;;;;;;;;;;;;;;;20.63;37.57;99705.88;5078824;28;833;-61
2022/02/18 05:06:29;;;;;;;;;;;;;;;19.71;39.44;99691.00;5077403;28;894;-62
2022/02/18 05:08:54;;;;;;;;;;;;;;;19.63;39.84;99694.59;5078543;28;949;-61
2022/02/18 05:11:20;;;;;;;;;;;;;;;18.40;42.66;99715.16;5078722;28;1016;-61
2022/02/18 05:13:45;;;;;;;;;;;;;;;19.20;41.14;99731.06;5078640;28;1179;-61
2022/02/18 05:16:11;;;;;;;;;;;;;;;20.08;38.93;99749.56;5078318;28;1909;-61
2022/02/18 05:18:37;;;;;;;;;;;;;;;20.48;37.94;99757.72;5078589;28;806;-61
2022/02/18 05:21:02;;;;;;;;;;;;;;;20.75;37.33;99788.91;5078594;28;809;-61
2022/02/18 05:23:27;;;;;;;;;;;;;;;20.94;37.08;99787.75;5078327;28;903;-61
2022/02/18 05:25:53;;;;;;;;;;;;;;;19.72;39.32;99825.03;5078427;28;749;-61
2022/02/18 05:28:19;;;;;;;;;;;;;;;19.65;39.68;99841.22;5078675;28;789;-61
2022/02/18 05:30:45;;;;;;;;;;;;;;;18.75;41.52;99853.09;5078425;28;911;-61
2022/02/18 05:33:12;;;;;;;;;;;;;;;18.77;41.84;99872.84;5078211;28;868;-61
2022/02/18 05:35:38;;;;;;;;;;;;;;;19.84;39.35;99865.88;5078206;28;1909;-61
2022/02/18 05:38:03;;;;;;;;;;;;;;;20.37;38.10;99877.06;5077998;28;852;-61
2022/02/18 05:40:29;;;;;;;;;;;;;;;20.64;37.61;99887.03;5110391;28;1023;-62
2022/02/18 05:42:55;;;;;;;;;;;;;;;20.87;37.22;99893.25;5078751;28;788;-62
2022/02/18 05:45:21;;;;;;;;;;;;;;;20.24;38.22;99907.22;5077627;28;921;-61
2022/02/18 05:47:47;;;;;;;;;;;;;;;19.72;39.65;99906.97;5077815;28;817;-61
2022/02/18 05:50:12;;;;;;;;;;;;;;;19.37;40.28;99932.38;5110619;28;757;-62
2022/02/18 05:52:41;;;;;;;;;;;;;;;18.24;42.88;99915.53;5078029;28;776;-61
2022/02/18 05:55:07;;;;;;;;;;;;;;;19.51;39.79;99914.97;5077607;28;1973;-61
2022/02/18 05:57:32;;;;;;;;;;;;;;;20.17;38.31;99921.50;5110265;28;1031;-62
2022/02/18 05:59:58;;;;;;;;;;;;;;;20.55;37.60;99916.56;5077969;28;784;-62
2022/02/18 06:02:23;;;;;;;;;;;;;;;20.84;37.02;99927.88;5077629;28;1029;-62
2022/02/18 06:04:49;;;;;;;;;;;;;;;20.95;36.94;99947.72;5078271;28;805;-62
2022/02/18 06:07:15;;;;;;;;;;;;;;;19.83;38.99;99958.03;5077455;28;801;-62
2022/02/18 06:09:40;;;;;;;;;;;;;;;19.80;39.07;99959.47;5077614;28;789;-61
2022/02/18 06:12:06;;;;;;;;;;;;;;;18.85;41.21;99956.72;5077867;28;1142;-60
2022/02/18 06:14:32;;;;;;;;;;;;;;;18.61;41.80;99953.06;5060685;28;1076;-62
2022/02/18 06:16:57;;;;;;;;;;;;;;;19.80;39.28;99964.97;5063468;28;1977;-62
2022/02/18 06:19:22;;;;;;;;;;;;;;;20.35;37.87;99960.22;5057184;28;802;-62
2022/02/18 06:21:48;;;;;;;;;;;;;;;20.66;37.21;99962.94;5038563;28;1175;-62
2022/02/18 06:24:13;;;;;;;;;;;;;;;20.88;37.02;99968.69;5057679;28;765;-62
2022/02/18 06:26:39;;;;;;;;;;;;;;;20.64;37.15;99976.22;5057450;28;774;-62
2022/02/18 06:29:04;;;;;;;;;;;;;;;19.80;39.09;99987.03;5057192;28;866;-62
2022/02/18 06:31:29;;;;;;;;;;;;;;;19.61;39.31;99983.63;5059076;28;1393;-62
2022/02/18 06:33:55;;;;;;;;;;;;;;;18.47;41.79;99993.56;5057000;28;837;-63
2022/02/18 06:36:21;;;;;;;;;;;;;;;19.28;40.24;100008.69;5050517;28;2036;-62
2022/02/18 06:38:47;;;;;;;;;;;;;;;20.05;38.38;100020.66;5056966;28;847;-63
2022/02/18 06:41:12;;;;;;;;;;;;;;;20.54;37.19;100022.66;5038842;28;861;-63
2022/02/18 06:43:38;;;;;;;;;;;;;;;20.74;36.85;100035.13;5057027;28;790;-63
2022/02/18 06:46:03;;;;;;;;;;;;;;;21.00;36.41;100038.78;5057713;28;1420;-63
2022/02/18 06:48:29;;;;;;;;;;;;;;;19.99;38.42;100049.47;5050264;28;1405;-65
2022/02/18 06:50:54;;;;;;;;;;;;;;;19.75;38.84;100061.63;5054492;28;1393;-65
2022/02/18 06:53:20;;;;;;;;;;;;;;;19.32;39.85;100070.31;5055902;28;1413;-69
2022/02/18 06:55:46;;;;;;;;;;;;;;;18.20;42.42;100057.63;5056326;28;1898;-62
2022/02/18 06:58:11;;;;;;;;;;;;;;;19.62;39.35;100062.50;5055753;28;1535;-64
2022/02/18 07:00:37;;;;;;;;;;;;;;;20.33;37.70;100059.13;5052498;28;1492;-62
2022/02/18 07:03:03;;;;;;;;;;;;;;;20.72;37.20;100054.78;5049269;28;1353;-62
2022/02/18 07:05:29;;;;;;;;;;;;;;;20.95;36.79;100061.03;5047499;28;1350;-61
2022/02/18 07:07:55;;;;;;;;;;;;;;;19.91;39.12;100066.78;5050534;28;1606;-67
2022/02/18 07:10:20;;;;;;;;;;;;;;;20.04;38.81;100074.19;5055665;28;1215;-62
2022/02/18 07:12:45;;;;;;;;;;;;;;;19.13;40.62;100065.75;5057412;28;1539;-62
2022/02/18 07:15:11;;;;;;;;;;;;;;;18.77;41.77;100055.44;5070522;28;1934;-60
2022/02/18 07:17:36;;;;;;;;;;;;;;;19.90;39.10;100054.94;5070948;28;1409;-63
2022/02/18 07:20:03;;;;;;;;;;;;;;;20.44;38.10;100059.66;5070353;28;1412;-64
2022/02/18 07:22:28;;;;;;;;;;;;;;;20.72;37.25;100068.59;5072320;28;1295;-63
2022/02/18 07:24:54;;;;;;;;;;;;;;;20.97;36.82;100082.81;5075229;28;1357;-65
2022/02/18 07:27:19;;;;;;;;;;;;;;;20.37;38.30;100084.13;5079655;28;1202;-67
2022/02/18 07:29:44;;;;;;;;;;;;;;;20.18;38.95;100080.47;5075007;28;765;-67
2022/02/18 07:32:10;;;;;;;;;;;;;;;19.85;39.61;100090.13;5076822;28;1474;-65
2022/02/18 07:34:35;;;;;;;;;;;;;;;18.76;42.52;100092.38;5072986;28;1235;-67
2022/02/18 07:37:01;;;;;;;;;;;;;;;18.17;43.83;100102.25;5075084;28;1906;-64
2022/02/18 07:39:26;;;;;;;;;;;;;;;19.09;41.98;100111.59;5075913;28;829;-64
2022/02/18 07:41:52;;;;;;;;;;;;;;;20.14;39.65;100122.81;5075114;28;1213;-64
2022/02/18 07:44:17;;;;;;;;;;;;;;;20.70;38.92;100134.41;5081825;28;1443;-65
2022/02/18 07:46:43;;;;;;;;;;;;;;;21.02;38.31;100160.88;5076537;28;1550;-66
2022/02/18 07:49:10;;;;;;;;;;;;;;;19.90;40.63;100200.38;5075904;28;868;-69
2022/02/18 07:51:35;;;;;;;;;;;;;;;19.96;40.40;100147.53;5075243;28;1142;-67
2022/02/18 07:54:01;;;;;;;;;;;;;;;19.33;41.47;100146.38;5103485;28;1265;-62
2022/02/18 07:56:26;;;;;;;;;;;;;;;17.90;44.43;100158.75;5074062;28;1979;-62
2022/02/18 07:58:52;;;;;;;;;;;;;;;16.67;46.51;100150.03;5075562;28;1344;-67
2022/02/18 08:01:18;;;;;;;;;;;;;;;16.20;49.79;100171.56;5075323;28;1501;-60
2022/02/18 08:03:43;;;;;;;;;;;;;;;18.98;42.31;100176.28;5069681;28;1379;-62
2022/02/18 08:06:09;;;;;;;;;;;;;;;18.80;41.97;100161.44;5075011;28;1258;-58
2022/02/18 08:08:36;;;;;;;;;;;;;;;18.33;43.15;100168.84;5074240;28;1205;-57
2022/02/18 08:11:03;;;;;;;;;;;;;;;17.34;45.47;100172.13;5074577;28;1203;-62
2022/02/18 08:13:29;;;;;;;;;;;;;;;15.97;48.37;100187.63;5074601;28;1378;-60
2022/02/18 08:15:54;;;;;;;;;;;;;;;16.85;47.09;100173.19;5073826;28;1977;-68
2022/02/18 08:18:20;;;;;;;;;;;;;;;18.81;42.50;100188.66;5072322;28;1927;-69
2022/02/18 08:20:47;;;;;;;;;;;;;;;19.77;40.48;100166.97;5075164;28;841;-67
2022/02/18 08:23:13;;;;;;;;;;;;;;;19.67;40.71;100176.28;5074781;28;1851;-66
2022/02/18 08:25:38;;;;;;;;;;;;;;;19.52;41.48;100178.53;5075429;28;1499;-67
2022/02/18 08:28:04;;;;;;;;;;;;;;;19.70;41.20;100169.31;5075139;28;1029;-67
2022/02/18 08:30:30;;;;;;;;;;;;;;;18.51;44.60;100189.19;5068726;28;1666;-68
2022/02/18 08:32:56;;;;;;;;;;;;;;;18.11;45.66;100186.81;5074258;28;1605;-69
2022/02/18 08:35:22;;;;;;;;;;;;;;;17.91;46.56;100204.44;5075605;28;1913;-69
2022/02/18 08:37:47;;;;;;;;;;;;;;;19.56;43.07;100207.13;5073443;28;1171;-68
2022/02/18 08:40:12;;;;;;;;;;;;;;;20.38;41.22;100199.78;5069224;28;1395;-69
2022/02/18 08:42:38;;;;;;;;;;;;;;;20.02;41.97;100202.59;5068986;28;1602;-70
2022/02/18 08:45:04;;;;;;;;;;;;;;;20.00;42.37;100194.63;5080337;28;1323;-68
2022/02/18 08:47:30;;;;;;;;;;;;;;;19.60;43.35;100186.06;5079769;28;1203;-65
2022/02/18 08:49:55;;;;;;;;;;;;;;;18.03;47.29;100195.72;5075941;28;1213;-62
2022/02/18 08:52:21;;;;;;;;;;;;;;;16.82;49.14;100184.78;5078745;28;1241;-60
2022/02/18 08:54:46;;;;;;;;;;;;;;;16.23;49.21;100190.22;5081728;28;1229;-62
2022/02/18 08:57:12;;;;;;;;;;;;;;;15.62;51.95;100192.16;5078863;28;1906;-60
2022/02/18 08:59:38;;;;;;;;;;;;;;;16.40;52.29;100185.13;5076161;28;1202;-59
2022/02/18 09:02:04;;;;;;;;;;;;;;;17.02;50.31;100209.28;5079487;28;1233;-61
2022/02/18 09:04:29;;;;;;;;;;;;;;;16.93;50.39;100192.63;5077522;28;1158;-63
2022/02/18 09:06:55;;;;;;;;;;;;;;;16.51;51.21;100202.34;5078674;28;1300;-60
2022/02/18 09:09:21;;;;;;;;;;;;;;;16.22;51.86;100199.53;5074587;28;1419;-61
2022/02/18 09:11:46;;;;;;;;;;;;;;;18.54;45.96;100210.66;5079138;28;1259;-65
2022/02/18 09:14:11;;;;;;;;;;;;;;;20.48;41.39;100196.81;5081818;28;1250;-61
2022/02/18 09:16:43;;;;;;;;;;;;;;;20.07;41.87;100197.75;5106856;28;1949;-59
2022/02/18 09:19:08;;;;;;;;;;;;;;;19.90;42.18;100205.91;5079394;28;1234;-59
2022/02/18 09:21:34;;;;;;;;;;;;;;;19.17;43.88;100211.19;5077015;28;1266;-59
2022/02/18 09:24:00;;;;;;;;;;;;;;;18.79;42.91;100226.72;5077278;28;1229;-60
2022/02/18 09:26:26;;;;;;;;;;;;;;;18.44;42.55;100226.22;5077616;28;1222;-61
2022/02/18 09:28:53;;;;;;;;;;;;;;;18.36;41.29;100242.59;5078220;28;1558;-61
2022/02/18 09:31:18;;;;;;;;;;;;;;;18.23;40.69;100244.13;5076661;28;1167;-63
2022/02/18 09:33:44;;;;;;;;;;;;;;;18.16;40.29;100244.53;5105488;28;1321;-63
2022/02/18 09:36:09;;;;;;;;;;;;;;;18.19;40.97;100265.09;5077227;28;1902;-60
2022/02/18 09:38:35;;;;;;;;;;;;;;;17.70;43.60;100265.16;5078008;28;1467;-60
2022/02/18 09:41:01;;;;;;;;;;;;;;;18.05;49.25;100265.03;5081878;28;1218;-60
2022/02/18 09:43:26;;;;;;;;;;;;;;;19.17;47.01;100263.56;5079074;28;1351;-60
2022/02/18 09:45:53;;;;;;;;;;;;;;;20.06;44.48;100265.13;5075961;28;1294;-61
2022/02/18 09:48:18;;;;;;;;;;;;;;;20.51;42.82;100262.44;5076340;28;1212;-61
2022/02/18 09:50:44;;;;;;;;;;;;;;;20.76;42.17;100275.97;5075603;28;1214;-62
2022/02/18 09:53:09;;;;;;;;;;;;;;;20.96;41.26;100274.66;5075669;28;1433;-62
2022/02/18 09:55:37;;;;;;;;;;;;;;;21.13;40.57;100279.47;5075456;28;1909;-61
2022/02/18 09:58:02;;;;;;;;;;;;;;;21.28;40.07;100286.53;5079395;28;1284;-61
2022/02/18 10:00:28;;;;;;;;;;;;;;;21.39;39.37;100287.09;5076760;28;982;-61
2022/02/18 10:02:54;;;;;;;;;;;;;;;21.51;39.22;100285.34;5082159;28;1217;-62
2022/02/18 10:05:19;;;;;;;;;;;;;;;21.58;38.79;100286.88;5092108;28;1514;-62
2022/02/18 10:08:09;;;;;;;;;;;;;;;21.67;38.59;100290.47;5077181;28;812;-62
2022/02/18 10:10:35;;;;;;;;;;;;;;;21.76;38.20;100285.00;5073200;28;1566;-62
2022/02/18 10:13:01;;;;;;;;;;;;;;;20.63;40.34;100281.22;5079227;28;1253;-62
2022/02/18 10:15:29;;;;;;;;;;;;;;;20.59;40.53;100288.50;5082960;28;1909;-63
2022/02/18 10:17:58;;;;;;;;;;;;;;;19.34;42.72;100276.78;5076277;28;1132;-61
2022/02/18 10:20:28;;;;;;;;;;;;;;;20.28;40.97;100286.44;5076411;28;1095;-61
2022/02/18 10:22:54;;;;;;;;;;;;;;;21.05;38.88;100283.00;5073954;28;1252;-61
2022/02/18 10:25:29;;;;;;;;;;;;;;;21.40;38.10;100286.75;5075101;28;1166;-61
2022/02/18 10:27:55;;;;;;;;;;;;;;;21.59;37.63;100288.50;5075905;28;1193;-60
2022/02/18 10:30:25;;;;;;;;;;;;;;;21.75;37.23;100286.13;5071840;28;1153;-61
2022/02/18 10:32:55;;;;;;;;;;;;;;;21.85;36.89;100281.13;5078712;28;1336;-65
2022/02/18 10:35:28;;;;;;;;;;;;;;;20.71;39.06;100289.94;5077104;28;1901;-64
2022/02/18 10:37:54;;;;;;;;;;;;;;;20.49;39.78;100283.22;5075580;28;1152;-66
2022/02/18 10:40:19;;;;;;;;;;;;;;;19.47;41.71;100279.56;5075107;28;1285;-62
2022/02/18 10:42:45;;;;;;;;;;;;;;;20.29;40.31;100284.53;5075317;28;1306;-68
2022/02/18 10:45:11;;;;;;;;;;;;;;;21.14;38.13;100286.63;5076335;28;1283;-64
2022/02/18 10:47:37;;;;;;;;;;;;;;;21.51;37.58;100279.81;5075993;28;1249;-64
2022/02/18 10:50:02;;;;;;;;;;;;;;;21.77;37.02;100276.38;5076296;28;1483;-64
2022/02/18 10:52:28;;;;;;;;;;;;;;;22.00;36.80;100273.50;5104597;28;1459;-65
2022/02/18 10:54:57;;;;;;;;;;;;;;;20.67;39.79;100289.72;5075828;28;1083;-64
2022/02/18 10:57:24;;;;;;;;;;;;;;;20.58;40.35;100275.84;5075341;28;1914;-65
2022/02/18 10:59:49;;;;;;;;;;;;;;;19.52;42.93;100272.28;5075314;28;1116;-63
2022/02/18 11:02:35;;;;;;;;;;;;;;;20.72;40.38;100281.34;5074939;28;1218;-63
2022/02/18 11:05:19;;;;;;;;;;;;;;;21.53;38.56;100265.69;5075738;28;1780;-64
2022/02/18 11:07:45;;;;;;;;;;;;;;;21.96;37.91;100275.28;5075819;28;1519;-65
2022/02/18 11:10:27;;;;;;;;;;;;;;;22.04;37.70;100274.47;5105672;28;1158;-61
2022/02/18 11:12:56;;;;;;;;;;;;;;;20.84;40.26;100283.53;5076651;28;1371;-60
2022/02/18 11:15:21;;;;;;;;;;;;;;;20.62;40.59;100282.38;5080408;28;1926;-60
2022/02/18 11:17:47;;;;;;;;;;;;;;;19.59;43.27;100267.19;5075062;28;1304;-60
2022/02/18 11:20:13;;;;;;;;;;;;;;;20.92;40.38;100287.50;5075368;28;1297;-60
2022/02/18 11:22:38;;;;;;;;;;;;;;;21.60;39.07;100273.53;5081780;28;1392;-61
2022/02/18 11:25:04;;;;;;;;;;;;;;;21.96;38.39;100278.03;5104355;27;1355;-62
2022/02/18 11:27:29;;;;;;;;;;;;;;;21.83;38.75;100279.81;5101840;27;1462;-61
2022/02/18 11:29:55;;;;;;;;;;;;;;;20.94;40.78;100287.97;5072509;28;1474;-60
2022/02/18 11:32:25;;;;;;;;;;;;;;;20.61;41.64;100283.50;5074619;28;1237;-61
2022/02/18 11:35:08;;;;;;;;;;;;;;;19.20;44.49;100285.03;5075863;28;1225;-62
2022/02/18 11:37:34;;;;;;;;;;;;;;;20.53;41.61;100289.75;5073269;28;1993;-61
2022/02/18 11:39:59;;;;;;;;;;;;;;;21.31;39.88;100297.00;5075247;28;1338;-64
2022/02/18 11:42:28;;;;;;;;;;;;;;;21.75;39.23;100314.59;5074266;28;1482;-60
2022/02/18 11:44:55;;;;;;;;;;;;;;;22.03;38.59;100300.53;5078756;28;1190;-60
2022/02/18 11:47:21;;;;;;;;;;;;;;;21.13;40.44;100301.59;5103301;28;1327;-58
2022/02/18 11:49:47;;;;;;;;;;;;;;;20.95;41.19;100306.19;5073295;28;1375;-60
2022/02/18 11:52:13;;;;;;;;;;;;;;;20.22;42.40;100314.50;5095779;28;1495;-62
2022/02/18 11:54:39;;;;;;;;;;;;;;;19.67;44.07;100314.19;5074061;28;825;-60
2022/02/18 11:57:08;;;;;;;;;;;;;;;21.03;40.86;100324.78;5073304;28;1974;-60
2022/02/18 11:59:52;;;;;;;;;;;;;;;21.65;39.86;100335.06;5075736;28;1183;-63
2022/02/18 12:02:17;;;;;;;;;;;;;;;21.98;39.05;100342.19;5073549;28;1245;-58
2022/02/18 12:04:45;;;;;;;;;;;;;;;20.87;41.37;100356.69;5107225;28;1446;-57
2022/02/18 12:07:15;;;;;;;;;;;;;;;20.46;41.65;100353.69;5105018;28;1352;-62
2022/02/18 12:09:55;;;;;;;;;;;;;;;19.98;41.67;100348.66;5073763;28;1549;-62
2022/02/18 12:12:20;;;;;;;;;;;;;;;19.39;40.87;100348.34;5071402;28;1411;-62
2022/02/18 12:14:49;;;;;;;;;;;;;;;18.90;40.27;100356.06;5075474;28;1215;-62
2022/02/18 12:17:15;;;;;;;;;;;;;;;18.66;39.52;100361.63;5075892;28;1938;-65
2022/02/18 12:19:40;;;;;;;;;;;;;;;18.37;39.25;100355.16;5075443;28;1278;-64
2022/02/18 12:22:06;;;;;;;;;;;;;;;18.47;38.60;100360.50;5080487;28;1308;-59
2022/02/18 12:24:44;;;;;;;;;;;;;;;18.80;37.44;100366.09;5077659;28;1250;-61
2022/02/18 12:27:19;;;;;;;;;;;;;;;18.56;38.68;100368.09;5077370;28;1304;-61
2022/02/18 12:29:45;;;;;;;;;;;;;;;18.65;39.98;100377.34;5079558;28;1136;-60
2022/02/18 12:32:10;;;;;;;;;;;;;;;19.14;44.66;100389.84;5080108;28;1269;-66
2022/02/18 12:34:37;;;;;;;;;;;;;;;19.78;44.96;100392.06;5077986;28;1312;-65
2022/02/18 12:37:04;;;;;;;;;;;;;;;19.62;44.48;100398.97;5074690;28;1991;-64
2022/02/18 12:39:38;;;;;;;;;;;;;;;19.44;44.03;100409.75;5080117;28;1570;-60
2022/02/18 12:42:07;;;;;;;;;;;;;;;18.83;42.62;100416.19;5077986;28;1397;-64
2022/02/18 12:44:32;;;;;;;;;;;;;;;18.53;41.85;100432.84;5079855;28;1474;-63
2022/02/18 12:46:58;;;;;;;;;;;;;;;18.47;40.30;100448.59;5077544;28;1550;-63
2022/02/18 12:49:23;;;;;;;;;;;;;;;18.22;39.76;100465.44;5082588;28;1285;-59
2022/02/18 12:52:04;;;;;;;;;;;;;;;18.41;40.04;100474.56;5087420;28;1311;-65